createdAt,value
2023-11-10T00:00:45.171Z,97841.97
2023-11-10T00:03:11.849Z,97856.09
2023-11-10T00:05:38.573Z,97870.88
2023-11-10T00:08:05.545Z,97880.88
2023-11-10T00:10:31.998Z,97880.41
2023-11-10T00:12:59.214Z,97894.31
2023-11-10T00:15:25.701Z,97901.31
2023-11-10T00:17:52.669Z,97935.16
2023-11-10T00:20:19.307Z,97931.25
2023-11-10T00:22:48.769Z,97921.25
2023-11-10T00:25:15.337Z,97910.44
2023-11-10T00:27:41.962Z,97865.34
2023-11-10T00:30:08.932Z,97817.91
2023-11-10T00:32:36.286Z,97769.34
2023-11-10T00:35:04.051Z,97733.53
2023-11-10T00:37:30.828Z,97704.53
2023-11-10T00:39:57.553Z,97679.47
2023-11-10T00:42:26.838Z,97663.97
2023-11-10T00:44:53.728Z,97647.84
2023-11-10T00:47:20.257Z,97624.00
2023-11-10T00:49:46.965Z,97589.13
2023-11-10T00:52:13.381Z,97576.06
2023-11-10T00:54:39.823Z,97579.34
2023-11-10T00:57:08.473Z,97594.25
2023-11-10T00:59:34.921Z,97614.88
2023-11-10T01:02:01.439Z,97614.88
2023-11-10T01:04:28.088Z,97624.28
2023-11-10T01:06:54.657Z,97632.22
2023-11-10T01:09:21.108Z,97644.22
2023-11-10T01:11:47.522Z,97638.13
2023-11-10T01:14:14.037Z,97638.13
2023-11-10T01:16:40.584Z,97637.31
2023-11-10T01:19:07.172Z,97648.75
2023-11-10T01:21:33.704Z,97635.69
2023-11-10T01:24:00.442Z,97638.34
2023-11-10T01:26:28.515Z,97632.41
2023-11-10T01:28:57.237Z,97631.81
2023-11-10T01:31:23.784Z,97623.84
2023-11-10T01:33:50.457Z,97613.63
2023-11-10T01:36:17.060Z,97612.63
2023-11-10T01:38:43.514Z,97595.06
2023-11-10T01:41:09.946Z,97585.28
2023-11-10T01:43:36.702Z,97570.34
2023-11-10T01:46:06.444Z,97566.47
2023-11-10T01:48:33.847Z,97549.13
2023-11-10T01:51:00.491Z,97545.25
2023-11-10T01:53:28.730Z,97537.72
2023-11-10T01:55:58.004Z,97519.13
2023-11-10T01:58:24.474Z,97517.50
2023-11-10T02:00:51.240Z,97514.63
2023-11-10T02:03:18.093Z,97492.19
2023-11-10T02:05:44.971Z,97489.56
2023-11-10T02:08:11.643Z,97473.22
2023-11-10T02:10:38.082Z,97467.31
2023-11-10T02:13:05.822Z,97453.63
2023-11-10T02:15:32.523Z,97439.56
2023-11-10T02:17:59.194Z,97424.47
2023-11-10T02:20:29.382Z,97420.19
2023-11-10T02:22:55.806Z,97408.72
2023-11-10T02:25:22.372Z,97398.34
2023-11-10T02:27:49.548Z,97393.84
2023-11-10T02:30:16.394Z,97390.16
2023-11-10T02:32:42.934Z,97385.69
2023-11-10T02:35:10.269Z,97383.84
2023-11-10T02:37:40.425Z,97376.72
2023-11-10T02:40:07.709Z,97371.00
2023-11-10T02:42:39.056Z,97368.53
2023-11-10T02:45:06.016Z,97366.09
2023-11-10T02:47:36.078Z,97359.75
2023-11-10T02:50:05.813Z,97349.97
2023-11-10T02:52:32.547Z,97342.47
2023-11-10T02:55:00.466Z,97325.94
2023-11-10T02:57:28.681Z,97332.03
2023-11-10T02:59:55.076Z,97334.69
2023-11-10T03:02:21.546Z,97338.56
2023-11-10T03:04:48.116Z,97328.19
2023-11-10T03:07:15.389Z,97327.94
2023-11-10T03:09:42.424Z,97325.94
2023-11-10T03:12:09.377Z,97325.94
2023-11-10T03:14:35.752Z,97315.31
2023-11-10T03:17:03.592Z,97315.94
2023-11-10T03:19:30.151Z,97306.34
2023-11-10T03:21:56.594Z,97307.97
2023-11-10T03:24:23.072Z,97313.72
2023-11-10T03:26:49.774Z,97315.09
2023-11-10T03:29:16.294Z,97310.22
2023-11-10T03:31:42.805Z,97302.47
2023-11-10T03:34:09.556Z,97305.94
2023-11-10T03:36:36.138Z,97295.94
2023-11-10T03:39:02.879Z,97300.63
2023-11-10T03:41:29.860Z,97308.38
2023-11-10T03:43:56.299Z,97303.50
2023-11-10T03:46:23.083Z,97305.09
2023-11-10T03:48:49.630Z,97315.72
2023-11-10T03:51:18.583Z,97310.22
2023-11-10T03:53:45.148Z,97307.16
2023-11-10T03:56:11.831Z,97307.56
2023-11-10T03:58:38.265Z,97304.91
2023-11-10T04:01:04.988Z,97308.19
2023-11-10T04:03:31.643Z,97316.56
2023-11-10T04:05:58.294Z,97311.06
2023-11-10T04:08:24.835Z,97313.28
2023-11-10T04:10:51.385Z,97303.91
2023-11-10T04:13:17.723Z,97310.03
2023-11-10T04:15:47.128Z,97305.94
2023-11-10T04:18:15.340Z,97314.91
2023-11-10T04:20:41.765Z,97317.97
2023-11-10T04:23:08.141Z,97317.56
2023-11-10T04:25:34.698Z,97316.13
2023-11-10T04:28:01.208Z,97317.06
2023-11-10T04:30:27.730Z,97331.94
2023-11-10T04:32:54.267Z,97329.53
2023-11-10T04:35:20.837Z,97337.88
2023-11-10T04:37:47.467Z,97337.69
2023-11-10T04:40:15.378Z,97360.22
2023-11-10T04:42:42.258Z,97418.88
2023-11-10T04:45:12.254Z,97470.56
2023-11-10T04:47:40.772Z,97538.13
2023-11-10T04:50:08.771Z,97588.41
2023-11-10T04:52:38.133Z,97634.53
2023-11-10T04:55:05.241Z,97673.34
2023-11-10T04:57:31.681Z,97729.69
2023-11-10T04:59:58.135Z,97765.63
2023-11-10T05:02:25.019Z,97831.22
2023-11-10T05:04:51.650Z,97886.75
2023-11-10T05:07:18.356Z,97908.34
2023-11-10T05:09:44.909Z,97957.63
2023-11-10T05:12:11.497Z,97985.63
2023-11-10T05:14:40.287Z,98030.81
2023-11-10T05:17:07.297Z,98024.44
2023-11-10T05:19:33.998Z,98040.19
2023-11-10T05:22:00.788Z,98045.75
2023-11-10T05:24:27.704Z,98053.47
2023-11-10T05:26:57.378Z,98050.00
2023-11-10T05:29:23.842Z,98067.22
2023-11-10T05:31:50.395Z,98069.28
2023-11-10T05:34:16.944Z,98075.78
2023-11-10T05:36:43.562Z,98076.22
2023-11-10T05:39:10.715Z,98078.56
2023-11-10T05:41:37.535Z,98084.97
2023-11-10T05:44:04.330Z,98073.47
2023-11-10T05:46:30.720Z,98077.94
2023-11-10T05:48:57.216Z,98081.81
2023-11-10T05:51:23.878Z,98079.97
2023-11-10T05:53:50.484Z,98088.56
2023-11-10T05:56:17.044Z,98085.78
2023-11-10T05:58:43.457Z,98083.72
2023-11-10T06:01:09.868Z,98099.00
2023-11-10T06:03:36.466Z,98103.94
2023-11-10T06:06:02.898Z,98112.44
2023-11-10T06:08:29.323Z,98108.66
2023-11-10T06:10:55.730Z,98126.81
2023-11-10T06:13:22.530Z,98137.44
2023-11-10T06:15:50.030Z,98449.31
2023-11-10T06:18:17.241Z,98418.75
2023-11-10T06:20:43.849Z,98408.31
2023-11-10T06:23:10.540Z,98435.69
2023-11-10T06:25:38.260Z,98490.00
2023-11-10T06:28:09.196Z,98503.28
2023-11-10T06:30:35.765Z,98493.56
2023-11-10T06:33:02.324Z,98485.97
2023-11-10T06:35:29.156Z,98477.34
2023-11-10T06:37:55.693Z,98506.09
2023-11-10T06:40:22.569Z,98516.81
2023-11-10T06:42:49.045Z,98557.38
2023-11-10T06:45:17.558Z,98582.97
2023-11-10T06:47:47.089Z,98599.16
2023-11-10T06:50:17.860Z,98538.53
2023-11-10T06:52:44.281Z,98529.75
2023-11-10T06:55:11.289Z,98514.63
2023-11-10T06:57:37.771Z,98525.25
2023-11-10T07:00:04.896Z,98562.28
2023-11-10T07:02:34.572Z,98594.31
2023-11-10T07:05:01.195Z,98602.47
2023-11-10T07:07:29.875Z,98596.25
2023-11-10T07:09:56.441Z,98604.78
2023-11-10T07:12:24.037Z,98596.97
2023-11-10T07:14:50.442Z,98620.50
2023-11-10T07:17:17.206Z,98623.81
2023-11-10T07:19:44.710Z,98607.53
2023-11-10T07:22:11.527Z,98576.47
2023-11-10T07:24:38.881Z,98529.94
2023-11-10T07:27:05.728Z,98505.03
2023-11-10T07:29:32.152Z,98504.13
2023-11-10T07:31:58.651Z,98525.75
2023-11-10T07:34:25.429Z,98543.03
2023-11-10T07:36:51.994Z,98576.44
2023-11-10T07:39:18.735Z,98584.03
2023-11-10T07:41:47.039Z,98581.28
2023-11-10T07:44:13.616Z,98594.56
2023-11-10T07:46:40.345Z,98549.06
2023-11-10T07:49:06.860Z,98533.72
2023-11-10T07:51:33.289Z,98537.63
2023-11-10T07:54:00.061Z,98527.09
2023-11-10T07:56:26.512Z,98506.31
2023-11-10T07:58:52.965Z,98517.22
2023-11-10T08:01:20.168Z,98506.09
2023-11-10T08:03:47.076Z,98474.78
2023-11-10T08:06:13.673Z,98452.59
2023-11-10T08:08:40.534Z,98445.34
2023-11-10T08:11:07.164Z,98498.63
2023-11-10T08:13:33.992Z,98521.44
2023-11-10T08:16:03.822Z,98539.38
2023-11-10T08:18:30.327Z,98586.13
2023-11-10T08:20:59.707Z,98605.66
2023-11-10T08:23:26.513Z,98607.41
2023-11-10T08:25:52.940Z,98534.44
2023-11-10T08:28:19.384Z,98537.72
2023-11-10T08:30:45.820Z,98470.25
2023-11-10T08:33:13.966Z,98419.00
2023-11-10T08:35:40.633Z,98396.97
2023-11-10T08:38:07.474Z,98467.09
2023-11-10T08:40:35.598Z,98485.72
2023-11-10T08:43:02.260Z,98502.25
2023-11-10T08:45:28.893Z,98478.75
2023-11-10T08:47:55.374Z,98511.50
2023-11-10T08:50:22.189Z,98484.75
2023-11-10T08:52:48.897Z,98490.16
2023-11-10T08:55:15.357Z,98486.03
2023-11-10T08:57:42.477Z,98442.16
2023-11-10T09:00:10.391Z,98293.94
2023-11-10T09:02:40.084Z,98230.03
2023-11-10T09:05:07.312Z,98196.66
2023-11-10T09:07:34.143Z,98212.81
2023-11-10T09:10:01.027Z,98161.19
2023-11-10T09:12:27.763Z,98129.53
2023-11-10T09:14:54.517Z,98097.47
2023-11-10T09:17:21.102Z,98058.06
2023-11-10T09:19:47.862Z,98141.22
2023-11-10T09:22:16.128Z,98176.44
2023-11-10T09:24:43.218Z,98202.91
2023-11-10T09:27:09.843Z,98255.03
2023-11-10T09:29:36.413Z,98215.41
2023-11-10T09:32:03.013Z,98202.59
2023-11-10T09:34:29.768Z,98189.06
2023-11-10T09:36:56.372Z,98218.00
2023-11-10T09:39:22.870Z,98216.38
2023-11-10T09:41:50.672Z,98202.22
2023-11-10T09:44:17.856Z,98142.34
2023-11-10T09:46:44.855Z,98096.59
2023-11-10T09:49:12.146Z,98089.56
2023-11-10T09:51:40.994Z,98047.66
2023-11-10T09:54:08.344Z,98027.81
2023-11-10T09:56:35.354Z,97974.75
2023-11-10T09:59:02.194Z,97933.03
2023-11-10T10:01:28.808Z,97912.63
2023-11-10T10:03:55.770Z,97876.38
2023-11-10T10:06:22.872Z,97875.56
2023-11-10T10:08:49.561Z,97865.63
2023-11-10T10:11:16.097Z,97847.25
2023-11-10T10:13:44.444Z,97857.47
2023-11-10T10:16:13.046Z,97797.00
2023-11-10T10:18:41.500Z,97804.94
2023-11-10T10:21:08.515Z,97831.06
2023-11-10T10:23:35.569Z,97827.31
2023-11-10T10:26:08.869Z,97817.03
2023-11-10T10:28:35.884Z,97830.56
2023-11-10T10:31:05.688Z,97879.97
2023-11-10T10:33:32.253Z,97917.88
2023-11-10T10:35:59.323Z,97884.38
2023-11-10T10:38:32.954Z,97838.75
2023-11-10T10:41:01.470Z,97826.53
2023-11-10T10:43:29.837Z,97796.13
2023-11-10T10:46:02.376Z,97868.28
2023-11-10T10:48:29.811Z,97879.91
2023-11-10T10:50:56.650Z,97839.59
2023-11-10T10:53:23.366Z,97802.91
2023-11-10T10:55:53.158Z,97887.03
2023-11-10T10:58:22.938Z,97993.72
2023-11-10T11:00:49.908Z,98055.22
2023-11-10T11:03:28.893Z,98100.72
2023-11-10T11:06:20.821Z,98086.00
2023-11-10T11:09:09.607Z,98098.28
2023-11-10T11:11:48.076Z,98118.56
2023-11-10T11:14:51.579Z,98017.25
2023-11-10T11:17:51.170Z,97936.19
2023-11-10T11:20:18.068Z,97976.84
2023-11-10T11:22:45.686Z,98020.13
2023-11-10T11:25:13.584Z,98062.34
2023-11-10T11:27:40.459Z,98082.69
2023-11-10T11:30:11.850Z,98110.38
2023-11-10T11:32:40.914Z,98171.03
2023-11-10T11:35:15.330Z,98218.16
2023-11-10T11:37:46.763Z,98246.69
2023-11-10T11:40:13.661Z,98324.88
2023-11-10T11:42:41.651Z,98281.59
2023-11-10T11:45:11.936Z,98146.84
2023-11-10T11:47:38.608Z,98063.06
2023-11-10T11:50:07.379Z,97956.25
2023-11-10T11:52:34.399Z,97921.81
2023-11-10T11:55:00.872Z,97965.75
2023-11-10T11:57:27.961Z,98010.50
2023-11-10T11:59:55.973Z,98024.28
2023-11-10T12:02:26.325Z,98042.44
2023-11-10T12:04:52.935Z,98071.34
2023-11-10T12:07:20.413Z,98058.00
2023-11-10T12:09:48.186Z,97984.72
2023-11-10T12:12:15.053Z,97862.66
2023-11-10T12:14:44.260Z,97857.28
2023-11-10T12:17:11.646Z,97833.25
2023-11-10T12:19:38.272Z,97852.44
2023-11-10T12:22:04.908Z,97866.44
2023-11-10T12:24:31.731Z,97865.00
2023-11-10T12:26:58.453Z,97885.72
2023-11-10T12:29:26.529Z,97951.09
2023-11-10T12:31:53.648Z,97981.06
2023-11-10T12:34:20.053Z,98035.16
2023-11-10T12:36:47.813Z,97983.13
2023-11-10T12:39:14.757Z,98025.53
2023-11-10T12:41:41.666Z,98036.81
2023-11-10T12:44:09.062Z,98092.72
2023-11-10T12:46:35.758Z,98104.56
2023-11-10T12:49:02.507Z,98120.72
2023-11-10T12:51:31.755Z,98125.69
2023-11-10T12:54:03.655Z,98080.22
2023-11-10T12:56:30.407Z,98008.53
2023-11-10T12:58:57.478Z,98032.72
2023-11-10T13:01:25.240Z,98054.84
2023-11-10T13:03:51.851Z,97943.59
2023-11-10T13:06:18.608Z,97848.75
2023-11-10T13:08:45.041Z,97790.53
2023-11-10T13:11:11.576Z,97762.41
2023-11-10T13:13:38.111Z,97744.09
2023-11-10T13:16:05.104Z,97722.72
2023-11-10T13:18:31.619Z,97773.94
2023-11-10T13:20:58.252Z,97751.56
2023-11-10T13:23:24.822Z,97731.88
2023-11-10T13:25:53.555Z,97688.03
2023-11-10T13:28:20.200Z,97649.72
2023-11-10T13:30:46.853Z,97627.00
2023-11-10T13:33:13.520Z,97597.75
2023-11-10T13:35:40.368Z,97617.66
2023-11-10T13:38:07.052Z,97599.97
2023-11-10T13:40:33.508Z,97549.28
2023-11-10T13:43:00.878Z,97537.44
2023-11-10T13:45:27.635Z,97486.28
2023-11-10T13:47:54.217Z,97481.34
2023-11-10T13:50:20.865Z,97483.34
2023-11-10T13:52:47.690Z,97517.94
2023-11-10T13:55:14.427Z,97507.38
2023-11-10T13:57:41.330Z,97519.81
2023-11-10T14:00:08.702Z,97545.97
2023-11-10T14:02:35.171Z,97553.66
2023-11-10T14:05:01.825Z,97540.84
2023-11-10T14:07:28.416Z,97534.69
2023-11-10T14:09:54.967Z,97544.47
2023-11-10T14:12:21.558Z,97586.06
2023-11-10T14:14:48.400Z,97586.06
2023-11-10T14:17:14.954Z,97562.25
2023-11-10T14:19:41.503Z,97545.38
2023-11-10T14:22:08.592Z,97567.78
2023-11-10T14:24:35.244Z,97543.72
2023-11-10T14:27:02.916Z,97551.81
2023-11-10T14:29:36.713Z,97547.38
2023-11-10T14:32:03.379Z,97534.13
2023-11-10T14:34:31.353Z,97534.28
2023-11-10T14:36:58.482Z,97513.03
2023-11-10T14:39:25.015Z,97490.09
2023-11-10T14:41:51.828Z,97498.72
2023-11-10T14:44:19.910Z,97505.75
2023-11-10T14:46:46.544Z,97520.19
2023-11-10T14:49:13.734Z,97535.75
2023-11-10T14:51:44.694Z,97534.59
2023-11-10T14:54:11.331Z,97532.44
2023-11-10T14:56:37.926Z,97532.72
2023-11-10T14:59:04.561Z,97544.25
2023-11-10T15:01:31.287Z,97579.50
2023-11-10T15:03:58.590Z,97537.06
2023-11-10T15:06:25.191Z,97554.56
2023-11-10T15:08:54.510Z,97576.97
2023-11-10T15:11:21.040Z,97561.13
2023-11-10T15:13:47.870Z,97533.69
2023-11-10T15:16:14.391Z,97562.88
2023-11-10T15:18:41.068Z,97571.09
2023-11-10T15:21:07.918Z,97562.13
2023-11-10T15:23:34.662Z,97547.59
2023-11-10T15:26:01.335Z,97542.28
2023-11-10T15:28:28.604Z,97563.19
2023-11-10T15:30:55.582Z,97558.31
2023-11-10T15:33:22.183Z,97565.28
2023-11-10T15:35:50.194Z,97552.41
2023-11-10T15:38:20.984Z,97595.88
2023-11-10T15:40:48.160Z,97607.75
2023-11-10T15:43:15.405Z,97570.06
2023-11-10T15:45:42.039Z,97574.59
2023-11-10T15:48:09.148Z,97575.63
2023-11-10T15:50:36.056Z,97579.28
2023-11-10T15:53:02.919Z,97593.66
2023-11-10T15:55:30.770Z,97602.91
2023-11-10T15:57:57.336Z,97634.25
2023-11-10T16:00:24.004Z,97685.59
2023-11-10T16:02:50.706Z,97694.59
2023-11-10T16:05:17.550Z,97692.97
2023-11-10T16:07:44.070Z,97726.53
2023-11-10T16:10:13.796Z,97792.97
2023-11-10T16:12:40.995Z,97807.47
2023-11-10T16:15:09.113Z,97821.31
2023-11-10T16:17:36.518Z,97847.47
2023-11-10T16:20:04.354Z,97860.31
2023-11-10T16:22:32.528Z,97827.41
2023-11-10T16:24:59.408Z,97841.69
2023-11-10T16:27:28.341Z,97856.22
2023-11-10T16:29:56.030Z,97861.69
2023-11-10T16:32:22.777Z,97893.75
2023-11-10T16:34:49.358Z,97911.03
2023-11-10T16:37:15.865Z,97929.00
2023-11-10T16:39:42.499Z,97946.13
2023-11-10T16:42:09.322Z,97892.28
2023-11-10T16:44:35.762Z,97862.44
2023-11-10T16:47:02.262Z,97837.53
2023-11-10T16:49:28.822Z,97815.91
2023-11-10T16:51:56.225Z,97811.03
2023-11-10T16:54:22.989Z,97763.25
2023-11-10T16:56:50.921Z,97767.53
2023-11-10T16:59:18.506Z,97771.63
2023-11-10T17:01:45.339Z,97750.19
2023-11-10T17:04:12.154Z,97764.69
2023-11-10T17:06:38.800Z,97760.59
2023-11-10T17:09:05.394Z,97748.94
2023-11-10T17:11:31.800Z,97731.59
2023-11-10T17:13:58.384Z,97751.41
2023-11-10T17:16:24.962Z,97755.09
2023-11-10T17:18:51.421Z,97759.38
2023-11-10T17:21:18.360Z,97799.63
2023-11-10T17:23:45.699Z,97797.59
2023-11-10T17:26:12.177Z,97842.91
2023-11-10T17:28:38.697Z,97865.34
2023-11-10T17:31:05.565Z,97859.38
2023-11-10T17:33:32.144Z,97841.84
2023-11-10T17:35:59.173Z,97850.84
2023-11-10T17:38:25.807Z,97887.59
2023-11-10T17:40:52.285Z,97882.91
2023-11-10T17:43:18.743Z,97933.94
2023-11-10T17:45:45.557Z,97919.47
2023-11-10T17:48:12.155Z,97953.31
2023-11-10T17:50:39.010Z,97941.53
2023-11-10T17:53:06.009Z,97932.47
2023-11-10T17:55:32.563Z,97919.16
2023-11-10T17:57:59.554Z,97955.38
2023-11-10T18:00:26.199Z,97923.56
2023-11-10T18:02:53.376Z,97861.16
2023-11-10T18:05:20.379Z,97846.88
2023-11-10T18:07:48.089Z,97867.84
2023-11-10T18:10:14.667Z,97862.53
2023-11-10T18:12:41.517Z,97823.59
2023-11-10T18:15:08.604Z,97764.41
2023-11-10T18:17:35.126Z,97758.69
2023-11-10T18:20:01.584Z,97773.75
2023-11-10T18:22:29.071Z,97758.69
2023-11-10T18:24:55.748Z,97763.78
2023-11-10T18:27:22.714Z,97748.66
2023-11-10T18:29:50.250Z,97730.28
2023-11-10T18:32:16.814Z,97739.47
2023-11-10T18:34:43.569Z,97758.69
2023-11-10T18:37:10.116Z,97706.81
2023-11-10T18:39:36.659Z,97710.53
2023-11-10T18:42:05.528Z,97651.31
2023-11-10T18:44:35.064Z,97649.28
2023-11-10T18:47:01.840Z,97679.25
2023-11-10T18:49:28.343Z,97704.34
2023-11-10T18:51:55.050Z,97711.31
2023-11-10T18:54:22.016Z,97713.75
2023-11-10T18:56:48.505Z,97744.16
2023-11-10T18:59:14.909Z,97765.56
2023-11-10T19:01:42.601Z,97781.50
2023-11-10T19:04:09.344Z,97765.97
2023-11-10T19:06:36.155Z,97774.50
2023-11-10T19:09:02.996Z,97790.63
2023-11-10T19:11:29.868Z,97806.28
2023-11-10T19:13:59.340Z,97832.94
2023-11-10T19:16:26.202Z,97843.34
2023-11-10T19:18:52.704Z,97821.75
2023-11-10T19:21:19.236Z,97827.66
2023-11-10T19:23:45.928Z,97850.91
2023-11-10T19:26:14.762Z,97813.38
2023-11-10T19:28:41.412Z,97794.44
2023-11-10T19:31:07.886Z,97798.06
2023-11-10T19:33:34.935Z,97822.91
2023-11-10T19:36:01.489Z,97842.03
2023-11-10T19:38:37.047Z,97830.22
2023-11-10T19:41:04.049Z,97883.66
2023-11-10T19:43:31.782Z,97874.28
2023-11-10T19:45:58.223Z,97883.44
2023-11-10T19:48:25.169Z,97871.50
2023-11-10T19:50:56.657Z,97805.88
2023-11-10T19:53:24.904Z,97730.03
2023-11-10T19:55:53.814Z,97737.13
2023-11-10T20:03:19.847Z,97771.34
2023-11-10T20:05:46.980Z,97799.22
2023-11-10T20:08:14.590Z,97837.47
2023-11-10T20:10:40.994Z,97870.88
2023-11-10T20:13:08.705Z,97906.25
2023-11-10T20:15:35.797Z,97974.25
2023-11-10T20:18:06.794Z,98016.44
2023-11-10T20:20:34.375Z,98057.56
2023-11-10T20:23:00.762Z,98090.28
2023-11-10T20:25:27.304Z,98109.03
2023-11-10T20:27:54.082Z,98146.28
2023-11-10T20:30:20.805Z,98168.91
2023-11-10T20:32:47.677Z,98196.78
2023-11-10T20:35:14.527Z,98216.50
2023-11-10T20:37:41.003Z,98237.69
2023-11-10T20:40:09.422Z,98244.41
2023-11-10T20:42:36.044Z,98251.94
2023-11-10T20:45:03.677Z,98261.47
2023-11-10T20:47:30.080Z,98285.84
2023-11-10T20:49:56.473Z,98317.28
2023-11-10T20:52:23.119Z,98335.19
2023-11-10T20:54:49.702Z,98350.88
2023-11-10T20:57:18.430Z,98378.47
2023-11-10T20:59:49.366Z,98380.78
2023-11-10T21:02:15.832Z,98371.22
2023-11-10T21:04:42.386Z,98378.50
2023-11-10T21:07:09.154Z,98392.91
2023-11-10T21:09:35.664Z,98409.28
2023-11-10T21:12:02.194Z,98414.59
2023-11-10T21:14:28.703Z,98414.44
2023-11-10T21:16:58.326Z,98422.84
2023-11-10T21:19:25.298Z,98436.59
2023-11-10T21:21:51.918Z,98445.31
2023-11-10T21:24:18.527Z,98442.03
2023-11-10T21:26:48.995Z,98438.88
2023-11-10T21:29:18.512Z,98432.75
2023-11-10T21:31:45.285Z,98418.91
2023-11-10T21:34:11.932Z,98418.09
2023-11-10T21:36:38.514Z,98423.19
2023-11-10T21:39:05.023Z,98424.50
2023-11-10T21:41:32.154Z,98429.28
2023-11-10T21:43:59.323Z,98407.13
2023-11-10T21:46:26.138Z,98405.16
2023-11-10T21:48:54.729Z,98390.47
2023-11-10T21:51:21.319Z,98378.59
2023-11-10T21:53:49.013Z,98399.22
2023-11-10T21:56:18.630Z,98392.94
2023-11-10T21:58:45.015Z,98389.13
2023-11-10T22:01:11.536Z,98386.69
2023-11-10T22:03:38.390Z,98391.63
2023-11-10T22:06:05.279Z,98381.53
2023-11-10T22:08:31.665Z,98378.25
2023-11-10T22:11:00.299Z,98389.66
2023-11-10T22:13:27.073Z,98407.84
2023-11-10T22:15:56.519Z,98408.69
2023-11-10T22:18:23.099Z,98411.84
2023-11-10T22:20:49.813Z,98422.91
2023-11-10T22:23:17.495Z,98418.59
2023-11-10T22:25:44.165Z,98406.84
2023-11-10T22:28:10.872Z,98402.88
2023-11-10T22:30:37.706Z,98407.03
2023-11-10T22:33:04.456Z,98394.81
2023-11-10T22:35:31.047Z,98387.34
2023-11-10T22:37:57.564Z,98391.81
2023-11-10T22:40:24.121Z,98396.09
2023-11-10T22:42:54.764Z,98412.31
2023-11-10T22:45:21.200Z,98411.50
2023-11-10T22:47:47.825Z,98423.53
2023-11-10T22:50:14.429Z,98416.94
2023-11-10T22:52:42.182Z,98419.91
2023-11-10T22:55:09.389Z,98408.84
2023-11-10T22:57:36.145Z,98408.19
2023-11-10T23:00:02.902Z,98392.44
2023-11-10T23:02:29.535Z,98385.47
2023-11-10T23:04:56.036Z,98378.75
2023-11-10T23:07:24.963Z,98383.53
2023-11-10T23:09:51.470Z,98369.47
2023-11-10T23:12:18.216Z,98330.88
2023-11-10T23:14:44.675Z,98295.78
2023-11-10T23:17:12.017Z,98242.34
2023-11-10T23:19:38.562Z,98216.16
2023-11-10T23:22:05.276Z,98187.81
2023-11-10T23:24:32.050Z,98163.56
2023-11-10T23:27:00.025Z,98155.06
2023-11-10T23:29:26.530Z,98148.00
2023-11-10T23:31:52.889Z,98158.94
2023-11-10T23:34:19.383Z,98173.50
2023-11-10T23:36:46.664Z,98182.66
2023-11-10T23:39:15.252Z,98202.16
2023-11-10T23:41:41.710Z,98190.44
2023-11-10T23:44:08.040Z,98158.53
2023-11-10T23:46:34.503Z,98140.00
2023-11-10T23:49:03.830Z,98141.91
2023-11-10T23:51:32.717Z,98132.63
2023-11-10T23:53:59.474Z,98134.84
2023-11-10T23:56:26.131Z,98117.69
2023-11-10T23:58:52.871Z,98110.06
